Terminal Aerodrome Forecast
Issued by NWS

Home | Current Version | Previous Version | Text Only | Print | Product List | Glossary On
Versions: 1 2 3 4 5 6 7 8 9 10 11 12 13 14 15 16 17 18 19 20
555
FTUS43 KDTX 082122 AAA
TAFDET
TAF AMD
KDET 082122Z 0821/0918 27013G20KT P6SM OVC040
      TEMPO 0821/0823 4SM -SN OVC025
     FM082300 27015G25KT P6SM -SHSN BKN030 OVC080
     FM090300 28013KT P6SM BKN035=

USA.gov is the U.S. government's official web portal to all federal, state and local government web resources and services.